Time;durP1;ratioP1;P1;durP2;ratioP2;P2;SDS_P1;SDS_P2;PMS_P1;PMS_P2;Temp;Humidity;BMP_temperature;BMP_pressure;BME280_temperature;BME280_humidity;BME280_pressure;Samples;Min_cycle;Max_cycle;Signal;HPM_P1;HPM_P2
2022/12/26 05:10:40;;;;;;;2.80;1.75;;;8.10;99.90;;;;;;4887235;29;20325;-69
2022/12/26 05:13:07;;;;;;;2.47;2.03;;;8.10;99.90;;;;;;4891993;29;20221;-68
2022/12/26 05:28:40;;;;;;;2.53;2.38;;;8.10;99.90;;;;;;4894781;29;20676;-69
2022/12/26 05:29:15;;;;;;;1.27;1.10;;;8.10;99.90;;;;;;4895615;29;20270;-70
2022/12/26 05:31:42;;;;;;;1.48;1.38;;;8.10;99.90;;;;;;4896403;29;20289;-69
2022/12/26 05:34:11;;;;;;;1.30;1.17;;;8.20;99.90;;;;;;4891576;29;20232;-71
2022/12/26 05:36:41;;;;;;;2.83;1.77;;;8.20;99.90;;;;;;4886836;29;20222;-69
2022/12/26 05:39:09;;;;;;;3.78;1.40;;;8.20;99.90;;;;;;4888156;29;20241;-70
2022/12/26 05:41:36;;;;;;;1.30;1.30;;;8.20;99.90;;;;;;4896085;29;20255;-70
2022/12/26 05:44:03;;;;;;;2.10;2.00;;;8.20;99.90;;;;;;4893992;29;20222;-69
2022/12/26 05:46:29;;;;;;;1.77;1.75;;;8.20;99.90;;;;;;4894275;29;20246;-70
2022/12/26 05:48:56;;;;;;;2.33;2.15;;;8.20;99.90;;;;;;4894730;29;20270;-69
2022/12/26 05:51:24;;;;;;;2.45;2.35;;;8.20;99.90;;;;;;4890906;29;20625;-69
2022/12/26 05:53:52;;;;;;;2.65;1.83;;;8.20;99.90;;;;;;4894054;29;20218;-69
2022/12/26 05:56:20;;;;;;;1.17;1.17;;;8.20;99.90;;;;;;4895876;29;20205;-69
2022/12/26 05:58:47;;;;;;;1.42;1.42;;;8.20;99.90;;;;;;4893950;29;20214;-69
2022/12/26 06:01:16;;;;;;;2.22;2.13;;;8.20;99.90;;;;;;4895856;29;20282;-69
2022/12/26 06:03:46;;;;;;;3.15;1.75;;;8.20;99.90;;;;;;4894714;29;20211;-69
2022/12/26 06:06:13;;;;;;;2.40;2.30;;;8.20;99.90;;;;;;4895720;29;20313;-68
2022/12/26 06:08:41;;;;;;;4.55;1.48;;;8.20;99.90;;;;;;4892682;29;20206;-69
2022/12/26 06:11:10;;;;;;;0.82;0.82;;;8.20;99.90;;;;;;4886283;29;20243;-69
2022/12/26 06:13:37;;;;;;;1.75;1.65;;;8.20;99.90;;;;;;4892812;29;20233;-69
2022/12/26 06:16:05;;;;;;;1.65;1.55;;;8.20;99.90;;;;;;4893367;29;20583;-70
2022/12/26 06:18:32;;;;;;;1.40;1.40;;;8.20;99.90;;;;;;4893075;29;20267;-70
2022/12/26 06:20:59;;;;;;;1.60;1.60;;;8.20;99.90;;;;;;4892462;29;20238;-69
2022/12/26 06:23:25;;;;;;;1.20;1.10;;;8.20;99.90;;;;;;4895283;29;20211;-70
2022/12/26 06:25:57;;;;;;;1.77;1.58;;;8.20;99.90;;;;;;4892871;29;20217;-70
2022/12/26 06:28:26;;;;;;;1.00;1.00;;;8.20;99.90;;;;;;4895280;29;20224;-70
2022/12/26 06:30:53;;;;;;;3.13;1.85;;;8.30;99.90;;;;;;4895122;29;20237;-70
2022/12/26 06:33:20;;;;;;;3.10;1.67;;;8.30;99.90;;;;;;4894988;29;20211;-70
2022/12/26 06:35:46;;;;;;;1.27;1.27;;;8.20;99.90;;;;;;4894410;29;20233;-70
2022/12/26 06:38:13;;;;;;;0.90;0.90;;;8.30;99.90;;;;;;4894138;29;20632;-68
2022/12/26 06:40:40;;;;;;;0.77;0.77;;;8.30;99.90;;;;;;4890131;29;20238;-70
2022/12/26 06:43:09;;;;;;;1.50;1.40;;;8.30;99.90;;;;;;4893574;29;20610;-69
2022/12/26 06:45:36;;;;;;;1.25;1.25;;;8.30;99.90;;;;;;4893781;29;20218;-69
2022/12/26 06:48:02;;;;;;;1.13;1.02;;;8.30;99.90;;;;;;4895048;29;20590;-69
2022/12/26 06:50:29;;;;;;;1.58;1.48;;;8.30;99.90;;;;;;4894766;29;20208;-70
2022/12/26 06:52:56;;;;;;;1.60;1.50;;;8.30;99.90;;;;;;4891608;29;20298;-69
2022/12/26 06:55:22;;;;;;;1.00;0.70;;;8.30;99.90;;;;;;4890427;29;20219;-69
2022/12/26 06:57:51;;;;;;;1.05;1.05;;;8.30;99.90;;;;;;4898415;29;20277;-71
2022/12/26 07:00:20;;;;;;;1.05;1.05;;;8.30;99.90;;;;;;4896889;29;20695;-69
2022/12/26 07:02:50;;;;;;;0.32;0.32;;;8.30;99.90;;;;;;4896479;29;20213;-69
2022/12/26 07:05:16;;;;;;;1.02;1.02;;;8.30;99.90;;;;;;4898297;29;20229;-69
2022/12/26 07:07:43;;;;;;;1.00;1.00;;;8.30;99.90;;;;;;4898666;29;20211;-70
2022/12/26 07:10:10;;;;;;;5.35;0.70;;;8.40;99.90;;;;;;4899465;29;20217;-70
2022/12/26 07:12:37;;;;;;;1.13;0.85;;;8.40;99.90;;;;;;4898737;29;20213;-69
2022/12/26 07:15:04;;;;;;;0.80;0.80;;;8.40;99.90;;;;;;4898079;29;20217;-69
2022/12/26 07:17:32;;;;;;;0.60;0.60;;;8.40;99.90;;;;;;4895091;29;20297;-69
2022/12/26 07:19:59;;;;;;;1.55;1.33;;;8.40;99.90;;;;;;4899083;29;20241;-70
2022/12/26 07:22:26;;;;;;;2.60;2.40;;;8.40;99.90;;;;;;4893687;29;20241;-69
2022/12/26 07:24:52;;;;;;;2.13;2.03;;;8.40;99.90;;;;;;4893682;29;20213;-70
2022/12/26 07:27:19;;;;;;;3.28;2.53;;;8.40;99.90;;;;;;4896758;29;20210;-69
2022/12/26 07:29:46;;;;;;;2.10;2.00;;;8.50;99.90;;;;;;4892253;29;20304;-69
2022/12/26 07:32:13;;;;;;;2.20;2.10;;;8.50;99.90;;;;;;4895042;29;20296;-69
2022/12/26 07:34:41;;;;;;;2.22;1.98;;;8.50;99.90;;;;;;4897763;29;20217;-70
2022/12/26 07:37:08;;;;;;;5.28;2.28;;;8.50;99.90;;;;;;4895808;29;20310;-70
2022/12/26 07:39:36;;;;;;;5.68;4.32;;;8.50;99.90;;;;;;4897632;29;20221;-70
2022/12/26 07:42:03;;;;;;;4.28;2.45;;;8.50;99.90;;;;;;4888322;29;20334;-69
2022/12/26 07:44:32;;;;;;;9.63;3.08;;;8.50;99.90;;;;;;4887061;29;20230;-69
2022/12/26 07:46:59;;;;;;;12.00;4.85;;;8.50;99.90;;;;;;4891671;29;20321;-69
2022/12/26 07:49:27;;;;;;;4.28;3.90;;;8.50;99.90;;;;;;4897304;29;20208;-69
2022/12/26 07:51:55;;;;;;;5.32;3.70;;;8.50;99.90;;;;;;4894667;29;20231;-69
2022/12/26 07:54:21;;;;;;;3.08;2.90;;;8.60;99.90;;;;;;4896893;29;20262;-69
2022/12/26 07:56:48;;;;;;;7.35;2.83;;;8.60;99.90;;;;;;4897020;29;20208;-70
2022/12/26 07:59:16;;;;;;;3.40;2.70;;;8.60;99.90;;;;;;4896720;29;20210;-70
2022/12/26 08:01:44;;;;;;;6.38;4.63;;;8.50;99.90;;;;;;4897334;29;20234;-71
2022/12/26 08:04:11;;;;;;;7.90;4.35;;;8.60;99.90;;;;;;4896380;29;20225;-69
2022/12/26 08:06:38;;;;;;;5.18;3.55;;;8.50;99.90;;;;;;4891667;29;20221;-70
2022/12/26 08:09:06;;;;;;;6.43;5.15;;;8.50;99.90;;;;;;4897133;29;20316;-68
2022/12/26 08:11:35;;;;;;;7.53;4.20;;;8.40;99.90;;;;;;4896430;29;20226;-70
2022/12/26 08:14:02;;;;;;;3.40;3.08;;;8.50;99.90;;;;;;4891610;29;20700;-69
2022/12/26 08:16:29;;;;;;;9.32;5.40;;;8.40;99.90;;;;;;4892049;29;20265;-70
2022/12/26 08:18:56;;;;;;;4.82;3.53;;;8.40;99.90;;;;;;4895400;29;20272;-69
2022/12/26 08:21:23;;;;;;;8.73;5.00;;;8.40;99.90;;;;;;4886418;29;20241;-69
2022/12/26 08:23:49;;;;;;;12.20;4.45;;;8.40;99.90;;;;;;4892436;29;20214;-70
2022/12/26 08:26:21;;;;;;;3.95;3.25;;;8.40;99.90;;;;;;4896147;29;20217;-70
2022/12/26 08:28:49;;;;;;;5.45;4.95;;;8.40;99.90;;;;;;4896895;29;20677;-69
2022/12/26 08:31:16;;;;;;;8.07;3.58;;;8.40;99.90;;;;;;4896514;29;20699;-70
2022/12/26 08:33:42;;;;;;;5.10;4.60;;;8.40;99.90;;;;;;4895286;29;20619;-70
2022/12/26 08:36:11;;;;;;;7.65;4.47;;;8.40;99.90;;;;;;4894871;29;20299;-70
2022/12/26 08:38:39;;;;;;;5.05;4.55;;;8.40;99.90;;;;;;4896736;29;20238;-70
2022/12/26 08:41:06;;;;;;;4.97;4.57;;;8.50;99.90;;;;;;4891457;29;20633;-70
2022/12/26 08:43:34;;;;;;;8.05;4.10;;;8.40;99.90;;;;;;4897562;29;20210;-70
2022/12/26 08:46:03;;;;;;;4.80;3.35;;;8.40;99.90;;;;;;4889539;29;20223;-70
2022/12/26 08:48:30;;;;;;;7.57;6.88;;;8.40;99.90;;;;;;4891350;29;20556;-69
2022/12/26 08:50:59;;;;;;;8.02;4.25;;;8.50;99.90;;;;;;4894088;29;20273;-69
2022/12/26 08:53:27;;;;;;;13.23;5.50;;;8.40;99.90;;;;;;4894863;29;20222;-70
2022/12/26 08:55:55;;;;;;;6.07;4.88;;;8.40;99.90;;;;;;4888705;29;20223;-69
2022/12/26 08:58:21;;;;;;;6.47;4.70;;;8.50;99.90;;;;;;4890850;29;20210;-69
2022/12/26 09:00:50;;;;;;;5.55;4.43;;;8.50;99.90;;;;;;4895693;29;20727;-69
2022/12/26 09:03:17;;;;;;;9.07;5.05;;;8.50;99.90;;;;;;4888608;29;20213;-70
2022/12/26 09:05:44;;;;;;;8.23;4.70;;;8.50;99.90;;;;;;4895617;29;20214;-69
2022/12/26 09:08:11;;;;;;;5.32;4.55;;;8.60;99.90;;;;;;4896182;29;20207;-69
2022/12/26 09:10:38;;;;;;;4.60;4.28;;;8.60;99.90;;;;;;4896312;29;20258;-70
2022/12/26 09:13:04;;;;;;;7.85;5.05;;;8.70;99.90;;;;;;4894951;29;20242;-69
2022/12/26 09:15:31;;;;;;;5.82;4.07;;;8.70;99.90;;;;;;4887269;29;20227;-69
2022/12/26 09:17:59;;;;;;;8.75;5.13;;;8.80;99.90;;;;;;4896253;29;20221;-69
2022/12/26 09:20:26;;;;;;;8.10;4.18;;;8.80;99.90;;;;;;4895615;29;20232;-69
2022/12/26 09:22:53;;;;;;;4.72;3.42;;;8.80;99.90;;;;;;4896344;29;20294;-69
2022/12/26 09:25:21;;;;;;;4.00;2.60;;;8.80;99.90;;;;;;4895099;29;20260;-68
2022/12/26 09:27:49;;;;;;;9.13;4.82;;;8.90;99.90;;;;;;4894514;29;20221;-69
2022/12/26 09:30:16;;;;;;;7.25;5.00;;;8.90;99.90;;;;;;4895924;29;20209;-71
2022/12/26 09:32:43;;;;;;;5.78;3.25;;;8.90;99.90;;;;;;4894479;29;20215;-70
2022/12/26 09:35:11;;;;;;;10.35;5.88;;;9.00;99.90;;;;;;4892573;29;20221;-70
2022/12/26 09:37:37;;;;;;;9.98;6.15;;;8.90;99.90;;;;;;4894596;29;20650;-69
2022/12/26 09:40:05;;;;;;;7.30;5.00;;;9.00;99.90;;;;;;4892561;29;20249;-70
2022/12/26 09:42:39;;;;;;;6.70;6.00;;;9.00;99.90;;;;;;4895771;29;20234;-70
2022/12/26 09:45:13;;;;;;;6.55;3.75;;;9.00;99.90;;;;;;4895866;29;20214;-69
2022/12/26 09:47:49;;;;;;;6.03;5.63;;;9.10;99.90;;;;;;4891746;29;20227;-69
2022/12/26 09:50:25;;;;;;;4.85;3.83;;;9.10;99.90;;;;;;4893512;29;20214;-69
2022/12/26 09:52:56;;;;;;;8.77;4.88;;;9.10;99.90;;;;;;4890051;29;20695;-70
2022/12/26 09:55:33;;;;;;;8.35;5.93;;;9.10;99.90;;;;;;4890049;29;20213;-69
2022/12/26 09:58:08;;;;;;;5.95;3.25;;;9.10;99.90;;;;;;4893546;29;20211;-69
2022/12/26 10:00:42;;;;;;;4.25;3.55;;;9.20;99.90;;;;;;4893195;29;20296;-69
2022/12/26 10:03:11;;;;;;;4.70;2.45;;;9.20;99.90;;;;;;4891920;29;20214;-70
2022/12/26 10:06:05;;;;;;;4.43;4.13;;;9.20;99.90;;;;;;4894062;29;20210;-70
2022/12/26 10:08:48;;;;;;;6.22;3.63;;;9.20;99.90;;;;;;4890166;29;20218;-70
2022/12/26 10:11:24;;;;;;;4.07;3.72;;;9.20;99.90;;;;;;4894061;29;20723;-69
2022/12/26 10:13:56;;;;;;;5.35;2.85;;;9.20;99.90;;;;;;4895531;29;20214;-70
2022/12/26 10:16:31;;;;;;;7.78;6.32;;;9.20;99.90;;;;;;4891154;29;20234;-71
2022/12/26 10:19:06;;;;;;;12.00;4.72;;;9.20;99.90;;;;;;4896040;29;20206;-70
2022/12/26 10:21:49;;;;;;;3.70;3.38;;;9.30;99.90;;;;;;4893603;29;20228;-71
2022/12/26 10:24:19;;;;;;;9.95;6.10;;;9.30;99.90;;;;;;4894815;29;20311;-70
2022/12/26 10:26:49;;;;;;;3.70;3.40;;;9.30;99.90;;;;;;4896437;29;20216;-70
2022/12/26 10:29:21;;;;;;;8.07;4.25;;;9.30;99.90;;;;;;4892697;29;20654;-64
2022/12/26 10:31:52;;;;;;;9.70;5.20;;;9.40;99.90;;;;;;4892634;29;20226;-63
2022/12/26 10:34:21;;;;;;;8.98;4.50;;;9.50;99.90;;;;;;4892503;29;20211;-69
2022/12/26 10:36:53;;;;;;;5.13;4.63;;;9.50;99.90;;;;;;4891051;29;20223;-69
2022/12/26 10:39:26;;;;;;;6.68;4.97;;;9.50;99.90;;;;;;4891053;29;20216;-70
2022/12/26 10:41:56;;;;;;;8.90;5.60;;;9.50;99.90;;;;;;4891835;29;20247;-70
2022/12/26 10:44:23;;;;;;;6.20;4.85;;;9.50;99.90;;;;;;4892714;29;20719;-69
2022/12/26 10:47:07;;;;;;;11.65;6.47;;;9.50;99.90;;;;;;4903231;29;20260;-68
2022/12/26 10:49:34;;;;;;;3.17;2.88;;;9.60;99.90;;;;;;4904402;29;20216;-68
2022/12/26 10:52:03;;;;;;;3.40;3.20;;;9.60;99.90;;;;;;4902408;29;20224;-69
2022/12/26 10:54:30;;;;;;;14.52;5.18;;;9.60;99.90;;;;;;4907915;29;20244;-69
2022/12/26 10:57:00;;;;;;;3.60;3.38;;;9.60;99.90;;;;;;4895573;29;20225;-69
2022/12/26 10:59:40;;;;;;;6.32;4.82;;;9.70;99.90;;;;;;4890398;29;20225;-69
2022/12/26 11:02:21;;;;;;;4.32;3.90;;;9.70;99.90;;;;;;4890290;29;20544;-68
2022/12/26 11:05:06;;;;;;;11.70;3.38;;;9.70;99.90;;;;;;4889343;29;20242;-69
2022/12/26 11:07:36;;;;;;;6.90;3.92;;;9.70;99.90;;;;;;4892489;29;20215;-70
2022/12/26 11:10:06;;;;;;;11.38;5.25;;;9.70;99.90;;;;;;4893063;29;20209;-69
2022/12/26 11:12:39;;;;;;;4.80;3.53;;;9.70;99.90;;;;;;4893786;29;20233;-70
2022/12/26 11:15:17;;;;;;;5.38;4.82;;;9.70;99.90;;;;;;4889692;29;20220;-70
2022/12/26 11:17:45;;;;;;;7.03;4.13;;;9.70;99.90;;;;;;4892751;29;20217;-69
2022/12/26 11:20:23;;;;;;;3.53;3.13;;;9.70;99.90;;;;;;4909732;23;20238;-66
2022/12/26 11:22:52;;;;;;;6.35;4.25;;;9.80;99.90;;;;;;4909572;29;20724;-67
2022/12/26 11:25:22;;;;;;;4.50;2.72;;;9.80;99.90;;;;;;4911979;29;20629;-66
2022/12/26 11:27:50;;;;;;;4.38;4.10;;;9.90;99.90;;;;;;4905113;29;20220;-67
2022/12/26 11:30:21;;;;;;;8.32;3.80;;;10.00;99.90;;;;;;4910457;29;20602;-67
2022/12/26 11:32:51;;;;;;;19.83;4.80;;;10.10;99.90;;;;;;4909213;29;20209;-67
2022/12/26 11:35:20;;;;;;;6.15;5.03;;;10.10;99.90;;;;;;4898442;29;20217;-67
2022/12/26 11:37:53;;;;;;;3.47;2.92;;;10.10;99.90;;;;;;4903504;29;20209;-67
2022/12/26 11:40:24;;;;;;;7.15;2.67;;;10.10;99.90;;;;;;4902601;29;20357;-67
2022/12/26 11:42:55;;;;;;;6.13;3.65;;;10.00;99.90;;;;;;4904544;29;20282;-67
2022/12/26 11:45:25;;;;;;;4.18;3.20;;;10.00;99.90;;;;;;4910733;29;20264;-68
2022/12/26 11:47:54;;;;;;;3.20;2.80;;;10.00;99.90;;;;;;4903951;29;20204;-67
2022/12/26 11:50:24;;;;;;;9.82;3.72;;;9.90;99.90;;;;;;4909666;29;20242;-66
2022/12/26 11:53:03;;;;;;;4.57;4.05;;;10.00;99.90;;;;;;4909408;29;20521;-66
2022/12/26 11:55:33;;;;;;;3.13;2.92;;;10.00;99.90;;;;;;4912255;29;20659;-67
2022/12/26 11:58:05;;;;;;;5.80;4.55;;;10.00;99.90;;;;;;4906404;29;20315;-68
2022/12/26 12:00:32;;;;;;;11.02;3.15;;;10.00;99.90;;;;;;4907028;29;20241;-66
2022/12/26 12:02:59;;;;;;;4.72;1.83;;;10.10;99.90;;;;;;4914192;29;20279;-67
2022/12/26 12:05:37;;;;;;;4.43;2.53;;;10.00;99.90;;;;;;4911362;29;20221;-67
2022/12/26 12:08:24;;;;;;;3.15;2.83;;;10.00;99.90;;;;;;4912185;29;20217;-67
2022/12/26 12:11:05;;;;;;;9.82;3.25;;;10.00;99.90;;;;;;4913737;29;20277;-68
2022/12/26 12:13:52;;;;;;;9.63;2.90;;;10.00;99.90;;;;;;4907559;29;20211;-68
2022/12/26 12:16:51;;;;;;;3.25;2.83;;;10.00;99.90;;;;;;4909969;29;20219;-67
2022/12/26 12:19:35;;;;;;;2.95;2.78;;;10.10;99.90;;;;;;4909231;29;20286;-68
2022/12/26 12:22:27;;;;;;;8.95;2.38;;;10.00;99.90;;;;;;4910918;29;20292;-67
2022/12/26 12:25:31;;;;;;;3.55;3.28;;;10.10;99.90;;;;;;4901280;29;20224;-68
2022/12/26 12:28:06;;;;;;;2.78;1.92;;;10.00;99.90;;;;;;4909227;29;20203;-67
2022/12/26 12:30:38;;;;;;;2.88;2.63;;;10.00;99.90;;;;;;4905515;29;20239;-68
2022/12/26 12:33:26;;;;;;;3.33;2.95;;;10.00;99.90;;;;;;4911272;29;20212;-67
2022/12/26 12:36:03;;;;;;;2.97;2.55;;;10.00;99.90;;;;;;4910161;29;20281;-66
2022/12/26 12:38:34;;;;;;;3.35;2.08;;;10.10;99.90;;;;;;4908775;29;20273;-66
2022/12/26 12:41:25;;;;;;;5.70;3.17;;;10.10;99.90;;;;;;4912153;29;20258;-67
2022/12/26 12:44:02;;;;;;;13.38;2.55;;;10.10;99.90;;;;;;4904492;29;20210;-68
2022/12/26 12:46:36;;;;;;;2.55;2.35;;;10.00;99.90;;;;;;4908298;29;20283;-68
2022/12/26 12:49:24;;;;;;;1.10;1.10;;;10.00;99.90;;;;;;4914358;29;20595;-67
2022/12/26 12:52:00;;;;;;;1.90;1.90;;;10.00;99.90;;;;;;4910022;29;20223;-67
2022/12/26 12:54:50;;;;;;;3.90;2.50;;;9.90;99.90;;;;;;4903449;29;20283;-67
2022/12/26 12:57:26;;;;;;;4.00;2.65;;;9.80;99.90;;;;;;4914505;29;20247;-67
2022/12/26 13:00:04;;;;;;;3.50;2.65;;;9.80;99.90;;;;;;4906999;29;20714;-66
2022/12/26 13:02:36;;;;;;;3.17;3.08;;;9.70;99.90;;;;;;4912532;29;20220;-67
2022/12/26 13:05:17;;;;;;;6.30;3.33;;;9.70;99.90;;;;;;4910760;29;20207;-66
2022/12/26 13:07:49;;;;;;;16.52;2.35;;;9.70;99.90;;;;;;4905403;29;20215;-66
2022/12/26 13:10:21;;;;;;;2.92;2.83;;;9.70;99.90;;;;;;4905431;29;20243;-65
2022/12/26 13:12:51;;;;;;;2.35;2.15;;;9.70;99.90;;;;;;4908040;29;20301;-65
2022/12/26 13:15:28;;;;;;;2.67;2.45;;;9.70;99.90;;;;;;4914009;29;20208;-66
2022/12/26 13:18:02;;;;;;;1.65;1.65;;;9.70;99.90;;;;;;4907862;29;20314;-67
2022/12/26 13:20:34;;;;;;;5.03;4.45;;;9.70;99.90;;;;;;4907224;29;20235;-66
2022/12/26 13:25:56;;;;;;;2.67;2.47;;;9.80;99.90;;;;;;4902757;29;20210;-67
2022/12/26 13:28:30;;;;;;;3.17;2.28;;;9.90;99.90;;;;;;4913079;29;20212;-66
2022/12/26 13:30:57;;;;;;;3.20;2.38;;;9.90;99.90;;;;;;4905927;29;20816;-65
2022/12/26 13:33:24;;;;;;;2.22;1.70;;;10.00;99.90;;;;;;4909018;29;20209;-66
2022/12/26 13:35:54;;;;;;;2.25;2.15;;;10.00;99.90;;;;;;4909906;29;20205;-66
2022/12/26 13:38:22;;;;;;;1.60;1.50;;;9.90;99.90;;;;;;4912989;29;20231;-66
2022/12/26 13:43:53;;;;;;;2.28;1.80;;;9.90;99.90;;;;;;4905737;29;20233;-67
2022/12/26 13:44:03;;;;;;;5.45;2.63;;;9.80;99.90;;;;;;4911631;29;20258;-66
2022/12/26 13:46:37;;;;;;;2.58;1.40;;;9.70;99.90;;;;;;4911791;29;20220;-66
2022/12/26 13:49:03;;;;;;;2.05;1.90;;;9.70;99.90;;;;;;4902492;29;20598;-66
2022/12/26 13:51:55;;;;;;;1.95;1.45;;;9.70;99.90;;;;;;4907209;29;20225;-65
2022/12/26 13:54:24;;;;;;;1.80;1.70;;;9.80;99.90;;;;;;4890690;29;20229;-67
2022/12/26 13:57:32;;;;;;;2.58;1.80;;;9.70;99.90;;;;;;4907341;29;20206;-66
2022/12/26 14:00:24;;;;;;;2.13;1.70;;;9.70;99.90;;;;;;4911945;29;20339;-66
2022/12/26 14:03:43;;;;;;;3.58;2.55;;;9.70;99.90;;;;;;4901833;29;20827;-65
2022/12/26 14:06:24;;;;;;;1.55;1.55;;;9.70;99.90;;;;;;4902689;29;20741;-65
2022/12/26 14:09:17;;;;;;;1.80;1.80;;;9.70;99.90;;;;;;4908877;29;20208;-65
2022/12/26 14:12:00;;;;;;;3.28;3.08;;;9.70;99.90;;;;;;4905927;29;20667;-65
2022/12/26 14:14:38;;;;;;;1.80;1.70;;;9.70;99.90;;;;;;4900114;29;20214;-64
2022/12/26 14:17:15;;;;;;;1.98;1.98;;;9.70;99.90;;;;;;4904902;29;20365;-65
2022/12/26 14:19:49;;;;;;;1.00;1.00;;;9.70;99.90;;;;;;4905719;29;20660;-66
2022/12/26 14:22:24;;;;;;;6.95;1.50;;;9.70;99.90;;;;;;4904233;29;20266;-67
2022/12/26 14:25:08;;;;;;;4.97;0.95;;;9.60;99.90;;;;;;4906161;29;20213;-66
2022/12/26 14:27:43;;;;;;;0.82;0.82;;;9.50;99.90;;;;;;4905088;29;20281;-68
2022/12/26 14:30:21;;;;;;;1.00;1.00;;;9.40;99.90;;;;;;4903839;29;20648;-67
2022/12/26 14:33:02;;;;;;;0.73;0.73;;;9.30;99.90;;;;;;4907373;29;20228;-65
2022/12/26 14:35:33;;;;;;;0.38;0.38;;;9.10;99.90;;;;;;4908360;29;20697;-67
2022/12/26 14:38:17;;;;;;;0.47;0.47;;;9.10;99.90;;;;;;4901974;29;20217;-66
2022/12/26 14:40:59;;;;;;;6.82;0.80;;;9.00;99.90;;;;;;4904093;29;20229;-66
2022/12/26 14:43:31;;;;;;;0.63;0.63;;;8.80;99.90;;;;;;4907040;29;20737;-67
2022/12/26 14:45:58;;;;;;;0.20;0.20;;;8.70;99.90;;;;;;4905661;29;20741;-65
2022/12/26 14:48:48;;;;;;;0.68;0.68;;;8.60;99.90;;;;;;4906265;29;20567;-66
2022/12/26 14:51:35;;;;;;;0.20;0.20;;;8.50;99.90;;;;;;4905945;29;20355;-65
2022/12/26 14:54:45;;;;;;;0.20;0.20;;;8.40;99.90;;;;;;4906660;29;20214;-65
2022/12/26 14:57:46;;;;;;;0.10;0.10;;;8.40;99.90;;;;;;4906600;29;20670;-66
2022/12/26 15:00:29;;;;;;;0.28;0.28;;;8.30;99.90;;;;;;4850248;29;20249;-67
2022/12/26 15:03:40;;;;;;;1.90;0.63;;;8.30;99.90;;;;;;4853835;29;20771;-67
2022/12/26 15:06:46;;;;;;;0.20;0.20;;;8.20;99.90;;;;;;4898052;29;20241;-67
2022/12/26 15:09:37;;;;;;;1.33;0.73;;;8.20;99.90;;;;;;4904138;29;20216;-65
2022/12/26 15:12:31;;;;;;;0.10;0.10;;;8.10;99.90;;;;;;4910086;29;20280;-67
2022/12/26 15:15:18;;;;;;;1.38;1.35;;;8.10;99.90;;;;;;4906112;29;20220;-66
2022/12/26 15:17:57;;;;;;;1.38;0.70;;;8.10;99.90;;;;;;4907821;29;20213;-66
2022/12/26 15:20:52;;;;;;;0.10;0.10;;;8.10;99.90;;;;;;4907300;29;20242;-67
2022/12/26 15:23:47;;;;;;;0.10;0.10;;;8.00;99.90;;;;;;4914766;29;20247;-67
2022/12/26 15:26:48;;;;;;;0.20;0.20;;;8.00;99.90;;;;;;4911632;29;20225;-67
2022/12/26 15:29:42;;;;;;;0.80;0.80;;;7.90;99.90;;;;;;4889225;29;20267;-66
2022/12/26 15:32:16;;;;;;;0.20;0.20;;;7.80;99.90;;;;;;4910107;29;20220;-68
2022/12/26 15:35:00;;;;;;;0.40;0.40;;;7.70;99.90;;;;;;4910989;29;20204;-68
2022/12/26 15:38:04;;;;;;;0.30;0.30;;;7.50;99.90;;;;;;4909597;29;20550;-68
2022/12/26 15:40:36;;;;;;;0.30;0.30;;;7.40;99.90;;;;;;4907839;29;20231;-66
2022/12/26 15:43:24;;;;;;;0.10;0.10;;;7.30;99.90;;;;;;4911405;29;20703;-67
2022/12/26 15:45:56;;;;;;;12.20;1.27;;;7.20;99.90;;;;;;4909543;29;20683;-67
2022/12/26 15:48:35;;;;;;;0.55;0.45;;;7.20;99.90;;;;;;4906050;29;20212;-66
2022/12/26 15:51:06;;;;;;;0.70;0.70;;;7.20;99.90;;;;;;4902629;29;20224;-67
2022/12/26 15:53:47;;;;;;;0.30;0.30;;;7.20;99.90;;;;;;4912481;29;20252;-68
2022/12/26 15:56:46;;;;;;;0.40;0.40;;;7.20;99.90;;;;;;4911771;29;20221;-66
2022/12/26 15:59:40;;;;;;;0.55;0.55;;;7.20;99.90;;;;;;4906825;29;20224;-67
2022/12/26 16:02:12;;;;;;;0.68;0.68;;;7.20;99.90;;;;;;4912439;29;20303;-68
2022/12/26 16:04:42;;;;;;;0.25;0.25;;;7.20;99.90;;;;;;4908422;29;20589;-68
2022/12/26 16:07:23;;;;;;;0.40;0.40;;;7.10;99.90;;;;;;4906248;29;20216;-64
2022/12/26 16:09:51;;;;;;;4.78;0.30;;;7.00;99.90;;;;;;4910822;29;20208;-65
2022/12/26 16:12:28;;;;;;;0.45;0.38;;;6.90;99.90;;;;;;4909941;29;20265;-65
2022/12/26 16:15:13;;;;;;;0.88;0.88;;;6.80;99.90;;;;;;4911364;29;20278;-66
2022/12/26 16:17:41;;;;;;;0.40;0.40;;;6.80;99.90;;;;;;4908818;29;20215;-65
2022/12/26 16:22:42;;;;;;;0.50;0.50;;;6.70;99.90;;;;;;4914632;29;20244;-66
2022/12/26 16:23:05;;;;;;;0.50;0.50;;;6.60;99.90;;;;;;4910579;29;20255;-66
2022/12/26 16:25:31;;;;;;;7.93;0.90;;;6.60;99.90;;;;;;4906709;29;20232;-67
2022/12/26 16:28:00;;;;;;;0.20;0.20;;;6.50;99.90;;;;;;4912948;29;20208;-65
2022/12/26 16:30:30;;;;;;;3.70;0.50;;;6.50;99.90;;;;;;4910344;29;20236;-66
2022/12/26 16:32:59;;;;;;;0.68;0.60;;;6.50;99.90;;;;;;4915252;29;20200;-66
2022/12/26 16:35:28;;;;;;;1.65;0.85;;;6.40;99.90;;;;;;4916816;29;20295;-66
2022/12/26 16:37:57;;;;;;;6.88;0.73;;;6.40;99.90;;;;;;4917563;29;20208;-68
2022/12/26 16:40:28;;;;;;;2.58;0.70;;;6.30;99.90;;;;;;4908164;29;20228;-66
2022/12/26 16:43:01;;;;;;;1.23;1.23;;;6.30;99.90;;;;;;4908620;29;20236;-67
2022/12/26 16:45:31;;;;;;;0.52;0.52;;;6.20;99.90;;;;;;4907912;29;20666;-67
2022/12/26 16:47:58;;;;;;;5.43;1.13;;;6.20;99.90;;;;;;4906780;29;20326;-66
2022/12/26 16:50:31;;;;;;;0.50;0.50;;;6.10;99.90;;;;;;4911127;29;20240;-66
2022/12/26 16:53:12;;;;;;;6.15;1.25;;;6.10;99.90;;;;;;4912129;29;20200;-67
2022/12/26 16:55:44;;;;;;;0.65;0.65;;;6.10;99.90;;;;;;4909449;29;20208;-66
2022/12/26 16:58:20;;;;;;;0.30;0.30;;;6.00;99.90;;;;;;4906772;29;20636;-66
2022/12/26 17:01:01;;;;;;;1.30;1.17;;;6.00;99.90;;;;;;4908920;29;20538;-68
2022/12/26 17:03:37;;;;;;;4.18;1.38;;;5.90;99.90;;;;;;4907055;29;20251;-67
2022/12/26 17:06:10;;;;;;;1.33;1.27;;;5.90;99.90;;;;;;4908524;29;20555;-67
2022/12/26 17:08:42;;;;;;;2.67;1.05;;;5.90;99.90;;;;;;4899792;29;20287;-67
2022/12/26 17:11:09;;;;;;;0.30;0.30;;;5.80;99.90;;;;;;4909833;29;20243;-66
2022/12/26 17:13:38;;;;;;;3.70;1.02;;;5.80;99.90;;;;;;4904574;29;20211;-67
2022/12/26 17:16:09;;;;;;;0.50;0.50;;;5.80;99.90;;;;;;4908712;29;20219;-67
2022/12/26 17:18:47;;;;;;;2.78;1.70;;;5.70;99.90;;;;;;4906572;29;20217;-67
2022/12/26 17:21:27;;;;;;;0.50;0.50;;;5.70;99.90;;;;;;4911379;29;20243;-67
2022/12/26 17:24:25;;;;;;;0.52;0.52;;;5.70;99.90;;;;;;4910164;29;20305;-67
2022/12/26 17:27:08;;;;;;;1.13;0.93;;;5.60;99.90;;;;;;4907644;29;20212;-66
2022/12/26 17:29:45;;;;;;;7.57;1.00;;;5.60;99.90;;;;;;4909805;29;20736;-67
2022/12/26 17:32:14;;;;;;;0.60;0.60;;;5.70;99.90;;;;;;4921998;23;20238;-70
2022/12/26 17:34:41;;;;;;;1.85;0.75;;;5.70;99.90;;;;;;4908381;29;20200;-70
2022/12/26 17:37:16;;;;;;;2.35;1.65;;;5.70;99.90;;;;;;4912017;29;20216;-69
2022/12/26 17:39:43;;;;;;;0.95;0.95;;;5.70;99.90;;;;;;4910766;29;20226;-69
2022/12/26 17:42:13;;;;;;;0.55;0.55;;;5.70;99.90;;;;;;4909014;29;20294;-68
2022/12/26 17:44:43;;;;;;;0.57;0.50;;;5.70;99.90;;;;;;4904903;29;20258;-70
2022/12/26 17:47:18;;;;;;;0.68;0.68;;;5.70;99.90;;;;;;4910025;29;20224;-70
2022/12/26 17:49:45;;;;;;;0.30;0.30;;;5.70;99.90;;;;;;4906468;29;20216;-70
2022/12/26 17:52:13;;;;;;;3.60;0.55;;;5.80;99.90;;;;;;4915178;29;20237;-70
2022/12/26 17:54:41;;;;;;;0.30;0.30;;;5.70;99.90;;;;;;4908004;29;20790;-70
2022/12/26 17:57:16;;;;;;;3.72;1.00;;;5.70;99.90;;;;;;4907797;29;20280;-70
2022/12/26 17:59:44;;;;;;;0.45;0.45;;;5.60;99.90;;;;;;4911199;29;20211;-69
2022/12/26 18:02:11;;;;;;;2.60;0.50;;;5.60;99.90;;;;;;4907893;29;20319;-70
2022/12/26 18:04:38;;;;;;;0.30;0.30;;;5.50;99.90;;;;;;4909844;29;20243;-70
2022/12/26 18:07:05;;;;;;;0.73;0.60;;;5.50;99.90;;;;;;4910534;29;20219;-70
2022/12/26 18:09:32;;;;;;;3.20;1.27;;;5.50;99.90;;;;;;4906027;29;21055;-70
2022/12/26 18:12:00;;;;;;;0.52;0.45;;;5.40;99.90;;;;;;4908939;29;20330;-71
2022/12/26 18:14:27;;;;;;;2.45;0.82;;;5.40;99.90;;;;;;4919108;29;20377;-70
2022/12/26 18:16:55;;;;;;;1.02;1.02;;;5.40;99.90;;;;;;4909584;29;20203;-70
2022/12/26 18:19:22;;;;;;;1.38;1.23;;;5.40;99.90;;;;;;4909869;29;20695;-70
2022/12/26 18:21:48;;;;;;;3.22;0.80;;;5.50;99.90;;;;;;4911977;29;20231;-71
2022/12/26 18:24:15;;;;;;;2.58;1.25;;;5.50;99.90;;;;;;4911090;29;20231;-69
2022/12/26 18:26:42;;;;;;;0.90;0.90;;;5.50;99.90;;;;;;4912092;29;20228;-69
2022/12/26 18:29:10;;;;;;;1.40;1.30;;;5.60;99.90;;;;;;4905432;29;20645;-67
2022/12/26 18:31:38;;;;;;;0.68;0.68;;;5.50;99.90;;;;;;4904662;29;20215;-70
2022/12/26 18:34:06;;;;;;;5.07;1.20;;;5.50;99.90;;;;;;4907364;29;20215;-70
2022/12/26 18:36:34;;;;;;;2.38;0.55;;;5.50;99.90;;;;;;4898980;29;20238;-70
2022/12/26 18:39:02;;;;;;;4.00;1.67;;;5.40;99.90;;;;;;4911557;29;20212;-69
2022/12/26 18:41:29;;;;;;;0.38;0.38;;;5.40;99.90;;;;;;4906336;29;20230;-70
2022/12/26 18:43:56;;;;;;;0.60;0.60;;;5.40;99.90;;;;;;4905035;29;20279;-70
2022/12/26 18:46:24;;;;;;;1.77;0.88;;;5.40;99.90;;;;;;4911815;29;20210;-70
2022/12/26 18:48:52;;;;;;;0.22;0.22;;;5.30;99.90;;;;;;4910811;29;20301;-70
2022/12/26 18:51:20;;;;;;;3.80;0.57;;;5.30;99.90;;;;;;4910470;29;20687;-69